Kezdőlap
METAR-TAF:

METAR-TAF

Repülőterek :

Sunlight Mountain, Colorado, Amerikai Egyesült Államok

földrajzi szélesség: 39-25-32N, földrajzi hosszúság: 107-22-45W, magasság: 3232 m

Jelenlegi meteorológiai megfigyelések

A jelentés 23 perccel ezelõtt készült, 23:15 UTC
Délnyugati szél 14 kt széllökések: 30 kt, dél-délnyugati és nyugati között változik
Hőmérséklet 3°C
Páratartalom 52%
Légköri nyomás 1022 hPa
Látótávolság: 16.1 km
Borult 4900 lábon

METAR: K5SM 182315Z AUTO 23014G30KT 210V270 10SM OVC049 03/M06 A3018 RMK AO2

Idő: 17:38 (23:38 UTC)


TAF: hiányzik

Meteorológiai megfigyelések és előrejelzések több, mint 4000 repülőtéren (METAR és TAF jelentéseket).

A térképen piros és sárga pontok jelzik az elérhető meteorológiai állomásokat.

Mozgassa az egeret a pont fölött, hogy megjelenjen az állomás neve.

Azután kattintson az időjárási megfigyelések és előrejelzések megtekintéséhez.

A térkép megváltoztatása: kattintson a fekete keresztel jelölt zöld gombra ráközelítéshez, a vonallal jelölt zöld gombra távolításhoz, vagy a zöld nyilakra a szomszédos térképek eléréséhez.


METAR-TAF: